sensor_id;sensor_type;location;lat;lon;timestamp;P1;durP1;ratioP1;P2;durP2;ratioP2
53674;SDS011;39574;50.534;8.500;2023-06-04T00:01:59;2.5;;;0.5;;
53674;SDS011;39574;50.534;8.500;2023-06-04T00:06:58;2.5;;;0.7;;
53674;SDS011;39574;50.534;8.500;2023-06-04T00:11:59;2.7;;;1.1;;
53674;SDS011;39574;50.534;8.500;2023-06-04T00:16:57;2.5;;;0.9;;
53674;SDS011;39574;50.534;8.500;2023-06-04T00:21:56;2.7;;;0.9;;
53674;SDS011;39574;50.534;8.500;2023-06-04T00:26:55;2.6;;;0.8;;
53674;SDS011;39574;50.534;8.500;2023-06-04T00:31:54;2.6;;;0.7;;
53674;SDS011;39574;50.534;8.500;2023-06-04T00:36:54;2.5;;;0.6;;
53674;SDS011;39574;50.534;8.500;2023-06-04T00:41:53;2.4;;;0.6;;
53674;SDS011;39574;50.534;8.500;2023-06-04T00:46:52;2.4;;;0.6;;
53674;SDS011;39574;50.534;8.500;2023-06-04T00:51:52;2.3;;;0.6;;
53674;SDS011;39574;50.534;8.500;2023-06-04T00:56:51;2.3;;;0.5;;
53674;SDS011;39574;50.534;8.500;2023-06-04T01:01:51;2.4;;;0.6;;
53674;SDS011;39574;50.534;8.500;2023-06-04T01:06:50;2.4;;;0.5;;
53674;SDS011;39574;50.534;8.500;2023-06-04T01:11:48;2.3;;;0.5;;
53674;SDS011;39574;50.534;8.500;2023-06-04T01:16:49;2.3;;;0.5;;
53674;SDS011;39574;50.534;8.500;2023-06-04T01:21:48;2.2;;;0.4;;
53674;SDS011;39574;50.534;8.500;2023-06-04T01:26:46;2.2;;;0.4;;
53674;SDS011;39574;50.534;8.500;2023-06-04T01:31:45;2.3;;;0.5;;
53674;SDS011;39574;50.534;8.500;2023-06-04T01:36:44;2.4;;;0.5;;
53674;SDS011;39574;50.534;8.500;2023-06-04T01:41:44;2.6;;;0.7;;
53674;SDS011;39574;50.534;8.500;2023-06-04T01:46:43;2.6;;;0.7;;
53674;SDS011;39574;50.534;8.500;2023-06-04T01:51:42;3.6;;;0.8;;
53674;SDS011;39574;50.534;8.500;2023-06-04T01:56:41;3.1;;;0.7;;
53674;SDS011;39574;50.534;8.500;2023-06-04T02:01:41;3.0;;;0.6;;
53674;SDS011;39574;50.534;8.500;2023-06-04T02:06:40;3.1;;;0.7;;
53674;SDS011;39574;50.534;8.500;2023-06-04T02:11:39;2.8;;;0.7;;
53674;SDS011;39574;50.534;8.500;2023-06-04T02:16:38;2.6;;;0.6;;
53674;SDS011;39574;50.534;8.500;2023-06-04T02:21:37;2.5;;;0.6;;
53674;SDS011;39574;50.534;8.500;2023-06-04T02:26:36;2.4;;;0.6;;
53674;SDS011;39574;50.534;8.500;2023-06-04T02:31:35;2.3;;;0.6;;
53674;SDS011;39574;50.534;8.500;2023-06-04T02:36:35;2.3;;;0.5;;
53674;SDS011;39574;50.534;8.500;2023-06-04T02:41:34;2.3;;;0.5;;
53674;SDS011;39574;50.534;8.500;2023-06-04T02:46:33;2.3;;;0.6;;
53674;SDS011;39574;50.534;8.500;2023-06-04T02:51:32;2.3;;;0.6;;
53674;SDS011;39574;50.534;8.500;2023-06-04T02:56:31;2.3;;;0.6;;
53674;SDS011;39574;50.534;8.500;2023-06-04T03:01:30;2.2;;;0.5;;
53674;SDS011;39574;50.534;8.500;2023-06-04T03:06:29;2.2;;;0.5;;
53674;SDS011;39574;50.534;8.500;2023-06-04T03:11:28;2.2;;;0.5;;
53674;SDS011;39574;50.534;8.500;2023-06-04T03:16:27;2.2;;;0.5;;
53674;SDS011;39574;50.534;8.500;2023-06-04T03:21:26;2.3;;;0.6;;
53674;SDS011;39574;50.534;8.500;2023-06-04T03:26:25;2.3;;;0.6;;
53674;SDS011;39574;50.534;8.500;2023-06-04T03:31:24;2.3;;;0.6;;
53674;SDS011;39574;50.534;8.500;2023-06-04T03:36:23;2.2;;;0.5;;
53674;SDS011;39574;50.534;8.500;2023-06-04T03:41:24;2.2;;;0.5;;
53674;SDS011;39574;50.534;8.500;2023-06-04T03:46:21;2.2;;;0.5;;
53674;SDS011;39574;50.534;8.500;2023-06-04T03:51:21;2.2;;;0.5;;
53674;SDS011;39574;50.534;8.500;2023-06-04T03:56:20;2.3;;;0.6;;
53674;SDS011;39574;50.534;8.500;2023-06-04T04:01:19;2.3;;;0.6;;
53674;SDS011;39574;50.534;8.500;2023-06-04T04:06:18;2.3;;;0.7;;
53674;SDS011;39574;50.534;8.500;2023-06-04T04:11:17;2.3;;;0.7;;
53674;SDS011;39574;50.534;8.500;2023-06-04T04:16:16;2.4;;;0.7;;
53674;SDS011;39574;50.534;8.500;2023-06-04T04:21:15;2.3;;;0.7;;
53674;SDS011;39574;50.534;8.500;2023-06-04T04:26:14;2.4;;;0.8;;
53674;SDS011;39574;50.534;8.500;2023-06-04T04:31:13;2.4;;;0.7;;
53674;SDS011;39574;50.534;8.500;2023-06-04T04:36:12;2.3;;;0.6;;
53674;SDS011;39574;50.534;8.500;2023-06-04T04:41:11;2.3;;;0.6;;
53674;SDS011;39574;50.534;8.500;2023-06-04T04:46:10;2.3;;;0.5;;
53674;SDS011;39574;50.534;8.500;2023-06-04T04:51:09;2.3;;;0.6;;
53674;SDS011;39574;50.534;8.500;2023-06-04T04:56:08;2.3;;;0.6;;
53674;SDS011;39574;50.534;8.500;2023-06-04T05:01:08;2.3;;;0.7;;
53674;SDS011;39574;50.534;8.500;2023-06-04T05:06:08;2.5;;;0.8;;
53674;SDS011;39574;50.534;8.500;2023-06-04T05:11:06;2.4;;;0.8;;
53674;SDS011;39574;50.534;8.500;2023-06-04T05:16:05;2.4;;;0.6;;
53674;SDS011;39574;50.534;8.500;2023-06-04T05:21:04;3.7;;;0.6;;
53674;SDS011;39574;50.534;8.500;2023-06-04T05:26:03;3.4;;;0.6;;
53674;SDS011;39574;50.534;8.500;2023-06-04T05:31:02;3.1;;;0.6;;
53674;SDS011;39574;50.534;8.500;2023-06-04T05:36:01;3.2;;;1.2;;
53674;SDS011;39574;50.534;8.500;2023-06-04T05:41:00;2.7;;;1.0;;
53674;SDS011;39574;50.534;8.500;2023-06-04T05:45:59;2.6;;;0.9;;
53674;SDS011;39574;50.534;8.500;2023-06-04T05:50:59;2.6;;;0.8;;
53674;SDS011;39574;50.534;8.500;2023-06-04T05:55:58;2.5;;;0.7;;
53674;SDS011;39574;50.534;8.500;2023-06-04T06:00:57;2.7;;;0.8;;
53674;SDS011;39574;50.534;8.500;2023-06-04T06:05:56;2.5;;;0.7;;
53674;SDS011;39574;50.534;8.500;2023-06-04T06:10:55;2.4;;;0.7;;
53674;SDS011;39574;50.534;8.500;2023-06-04T06:15:55;2.6;;;0.6;;
53674;SDS011;39574;50.534;8.500;2023-06-04T06:20:54;2.5;;;0.6;;
53674;SDS011;39574;50.534;8.500;2023-06-04T06:25:53;2.4;;;0.6;;
53674;SDS011;39574;50.534;8.500;2023-06-04T06:30:52;2.5;;;0.6;;
53674;SDS011;39574;50.534;8.500;2023-06-04T06:35:52;2.7;;;0.8;;
53674;SDS011;39574;50.534;8.500;2023-06-04T06:40:51;2.5;;;0.7;;
53674;SDS011;39574;50.534;8.500;2023-06-04T06:45:50;2.5;;;0.7;;
53674;SDS011;39574;50.534;8.500;2023-06-04T06:50:49;2.5;;;0.7;;
53674;SDS011;39574;50.534;8.500;2023-06-04T06:55:48;2.4;;;0.8;;
53674;SDS011;39574;50.534;8.500;2023-06-04T07:00:48;2.4;;;0.7;;
53674;SDS011;39574;50.534;8.500;2023-06-04T07:05:47;2.6;;;0.7;;
53674;SDS011;39574;50.534;8.500;2023-06-04T07:10:46;2.8;;;0.6;;
53674;SDS011;39574;50.534;8.500;2023-06-04T07:15:46;2.6;;;0.5;;
53674;SDS011;39574;50.534;8.500;2023-06-04T07:20:45;2.6;;;0.6;;
53674;SDS011;39574;50.534;8.500;2023-06-04T07:25:44;2.5;;;0.7;;
53674;SDS011;39574;50.534;8.500;2023-06-04T07:30:44;2.4;;;0.6;;
53674;SDS011;39574;50.534;8.500;2023-06-04T07:35:43;2.5;;;0.7;;
53674;SDS011;39574;50.534;8.500;2023-06-04T07:40:42;2.4;;;0.7;;
53674;SDS011;39574;50.534;8.500;2023-06-04T07:45:42;2.3;;;0.6;;
53674;SDS011;39574;50.534;8.500;2023-06-04T07:50:41;2.5;;;0.8;;
53674;SDS011;39574;50.534;8.500;2023-06-04T07:55:41;2.4;;;0.7;;
53674;SDS011;39574;50.534;8.500;2023-06-04T08:00:40;2.3;;;0.6;;
53674;SDS011;39574;50.534;8.500;2023-06-04T08:05:39;2.3;;;0.6;;
53674;SDS011;39574;50.534;8.500;2023-06-04T08:10:39;2.3;;;0.5;;
53674;SDS011;39574;50.534;8.500;2023-06-04T08:15:39;5.0;;;0.7;;
53674;SDS011;39574;50.534;8.500;2023-06-04T08:20:38;4.3;;;0.6;;
53674;SDS011;39574;50.534;8.500;2023-06-04T08:25:37;3.6;;;0.6;;
53674;SDS011;39574;50.534;8.500;2023-06-04T08:30:37;3.1;;;0.6;;
53674;SDS011;39574;50.534;8.500;2023-06-04T08:40:36;2.4;;;0.6;;
53674;SDS011;39574;50.534;8.500;2023-06-04T08:45:38;2.4;;;0.6;;
53674;SDS011;39574;50.534;8.500;2023-06-04T08:50:35;2.4;;;0.5;;
53674;SDS011;39574;50.534;8.500;2023-06-04T09:00:34;2.3;;;0.5;;
53674;SDS011;39574;50.534;8.500;2023-06-04T09:05:33;2.3;;;0.5;;
53674;SDS011;39574;50.534;8.500;2023-06-04T09:10:33;2.3;;;0.5;;
53674;SDS011;39574;50.534;8.500;2023-06-04T09:15:32;2.3;;;0.6;;
53674;SDS011;39574;50.534;8.500;2023-06-04T09:20:32;2.3;;;0.5;;
53674;SDS011;39574;50.534;8.500;2023-06-04T09:25:31;2.4;;;0.6;;
53674;SDS011;39574;50.534;8.500;2023-06-04T09:30:31;2.4;;;0.6;;
53674;SDS011;39574;50.534;8.500;2023-06-04T09:40:34;2.3;;;0.5;;
53674;SDS011;39574;50.534;8.500;2023-06-04T09:45:30;2.3;;;0.6;;
53674;SDS011;39574;50.534;8.500;2023-06-04T09:50:30;2.3;;;0.5;;
53674;SDS011;39574;50.534;8.500;2023-06-04T09:55:30;2.3;;;0.6;;
53674;SDS011;39574;50.534;8.500;2023-06-04T10:00:29;2.6;;;0.6;;
53674;SDS011;39574;50.534;8.500;2023-06-04T10:10:28;2.6;;;0.6;;
53674;SDS011;39574;50.534;8.500;2023-06-04T10:15:28;2.6;;;0.6;;
53674;SDS011;39574;50.534;8.500;2023-06-04T10:20:28;2.5;;;0.6;;
53674;SDS011;39574;50.534;8.500;2023-06-04T10:25:27;2.5;;;0.6;;
53674;SDS011;39574;50.534;8.500;2023-06-04T10:30:27;2.6;;;0.8;;
53674;SDS011;39574;50.534;8.500;2023-06-04T10:35:30;3.6;;;1.1;;
53674;SDS011;39574;50.534;8.500;2023-06-04T10:40:30;3.3;;;1.0;;
53674;SDS011;39574;50.534;8.500;2023-06-04T10:45:28;4.7;;;0.9;;
53674;SDS011;39574;50.534;8.500;2023-06-04T10:50:26;3.9;;;0.7;;
53674;SDS011;39574;50.534;8.500;2023-06-04T10:55:25;3.7;;;0.8;;
53674;SDS011;39574;50.534;8.500;2023-06-04T11:00:42;3.3;;;0.8;;
53674;SDS011;39574;50.534;8.500;2023-06-04T11:05:33;2.8;;;0.8;;
53674;SDS011;39574;50.534;8.500;2023-06-04T11:10:30;3.0;;;0.7;;
53674;SDS011;39574;50.534;8.500;2023-06-04T11:15:24;2.8;;;0.7;;
53674;SDS011;39574;50.534;8.500;2023-06-04T11:20:24;2.6;;;0.7;;
53674;SDS011;39574;50.534;8.500;2023-06-04T11:25:25;2.5;;;0.7;;
53674;SDS011;39574;50.534;8.500;2023-06-04T11:30:24;2.4;;;0.7;;
53674;SDS011;39574;50.534;8.500;2023-06-04T11:35:24;2.3;;;0.6;;
53674;SDS011;39574;50.534;8.500;2023-06-04T11:40:24;2.4;;;0.6;;
53674;SDS011;39574;50.534;8.500;2023-06-04T11:45:23;2.5;;;0.8;;
53674;SDS011;39574;50.534;8.500;2023-06-04T11:50:25;2.5;;;0.8;;
53674;SDS011;39574;50.534;8.500;2023-06-04T11:55:23;2.6;;;0.8;;
53674;SDS011;39574;50.534;8.500;2023-06-04T12:00:22;2.6;;;0.9;;
53674;SDS011;39574;50.534;8.500;2023-06-04T12:05:23;2.5;;;0.8;;
53674;SDS011;39574;50.534;8.500;2023-06-04T12:10:22;2.4;;;0.7;;
53674;SDS011;39574;50.534;8.500;2023-06-04T12:15:22;2.8;;;0.8;;
53674;SDS011;39574;50.534;8.500;2023-06-04T12:20:37;2.7;;;0.8;;
53674;SDS011;39574;50.534;8.500;2023-06-04T12:25:23;2.7;;;0.8;;
53674;SDS011;39574;50.534;8.500;2023-06-04T12:30:22;2.5;;;0.7;;
53674;SDS011;39574;50.534;8.500;2023-06-04T12:35:21;2.7;;;0.8;;
53674;SDS011;39574;50.534;8.500;2023-06-04T12:40:21;3.8;;;0.9;;
53674;SDS011;39574;50.534;8.500;2023-06-04T12:45:21;3.4;;;0.8;;
53674;SDS011;39574;50.534;8.500;2023-06-04T12:50:21;3.2;;;0.8;;
53674;SDS011;39574;50.534;8.500;2023-06-04T12:55:20;3.6;;;0.9;;
53674;SDS011;39574;50.534;8.500;2023-06-04T13:00:21;3.3;;;1.0;;
53674;SDS011;39574;50.534;8.500;2023-06-04T13:05:20;3.2;;;1.0;;
53674;SDS011;39574;50.534;8.500;2023-06-04T13:10:21;3.0;;;1.0;;
53674;SDS011;39574;50.534;8.500;2023-06-04T13:15:20;3.1;;;1.1;;
53674;SDS011;39574;50.534;8.500;2023-06-04T13:20:20;3.0;;;1.0;;
53674;SDS011;39574;50.534;8.500;2023-06-04T13:25:20;3.0;;;0.9;;
53674;SDS011;39574;50.534;8.500;2023-06-04T13:30:20;2.9;;;0.9;;
53674;SDS011;39574;50.534;8.500;2023-06-04T13:35:20;3.0;;;1.2;;
53674;SDS011;39574;50.534;8.500;2023-06-04T13:40:20;3.1;;;1.1;;
53674;SDS011;39574;50.534;8.500;2023-06-04T13:45:21;2.9;;;0.9;;
53674;SDS011;39574;50.534;8.500;2023-06-04T13:50:19;2.7;;;0.8;;
53674;SDS011;39574;50.534;8.500;2023-06-04T13:55:19;2.5;;;0.8;;
53674;SDS011;39574;50.534;8.500;2023-06-04T14:00:20;2.4;;;0.8;;
53674;SDS011;39574;50.534;8.500;2023-06-04T14:05:19;2.6;;;0.7;;
53674;SDS011;39574;50.534;8.500;2023-06-04T14:10:19;2.6;;;0.7;;
53674;SDS011;39574;50.534;8.500;2023-06-04T14:15:19;2.6;;;0.8;;
53674;SDS011;39574;50.534;8.500;2023-06-04T14:20:19;2.8;;;0.8;;
53674;SDS011;39574;50.534;8.500;2023-06-04T14:25:19;2.8;;;1.0;;
53674;SDS011;39574;50.534;8.500;2023-06-04T14:30:19;2.8;;;0.9;;
53674;SDS011;39574;50.534;8.500;2023-06-04T14:35:19;3.5;;;1.2;;
53674;SDS011;39574;50.534;8.500;2023-06-04T14:40:19;3.5;;;1.0;;
53674;SDS011;39574;50.534;8.500;2023-06-04T14:45:18;3.2;;;0.8;;
53674;SDS011;39574;50.534;8.500;2023-06-04T14:50:18;2.9;;;0.8;;
53674;SDS011;39574;50.534;8.500;2023-06-04T14:55:19;2.6;;;0.6;;
53674;SDS011;39574;50.534;8.500;2023-06-04T15:00:18;2.5;;;0.6;;
53674;SDS011;39574;50.534;8.500;2023-06-04T15:05:18;2.6;;;0.8;;
53674;SDS011;39574;50.534;8.500;2023-06-04T15:10:18;2.6;;;0.8;;
53674;SDS011;39574;50.534;8.500;2023-06-04T15:15:18;2.8;;;0.7;;
53674;SDS011;39574;50.534;8.500;2023-06-04T15:20:18;2.7;;;0.7;;
53674;SDS011;39574;50.534;8.500;2023-06-04T15:25:17;3.3;;;0.9;;
53674;SDS011;39574;50.534;8.500;2023-06-04T15:30:17;3.0;;;0.9;;
53674;SDS011;39574;50.534;8.500;2023-06-04T15:35:17;2.8;;;0.9;;
53674;SDS011;39574;50.534;8.500;2023-06-04T15:40:17;2.8;;;0.8;;
53674;SDS011;39574;50.534;8.500;2023-06-04T15:45:16;2.6;;;0.7;;
53674;SDS011;39574;50.534;8.500;2023-06-04T15:50:16;3.8;;;0.8;;
53674;SDS011;39574;50.534;8.500;2023-06-04T15:55:16;3.5;;;0.8;;
53674;SDS011;39574;50.534;8.500;2023-06-04T16:00:16;3.3;;;0.9;;
53674;SDS011;39574;50.534;8.500;2023-06-04T16:05:16;3.1;;;0.9;;
53674;SDS011;39574;50.534;8.500;2023-06-04T16:10:16;2.7;;;0.8;;
53674;SDS011;39574;50.534;8.500;2023-06-04T16:15:15;2.7;;;0.8;;
53674;SDS011;39574;50.534;8.500;2023-06-04T16:20:15;2.6;;;0.7;;
53674;SDS011;39574;50.534;8.500;2023-06-04T16:25:15;2.4;;;0.5;;
53674;SDS011;39574;50.534;8.500;2023-06-04T16:30:15;2.8;;;0.7;;
53674;SDS011;39574;50.534;8.500;2023-06-04T16:35:15;2.7;;;0.7;;
53674;SDS011;39574;50.534;8.500;2023-06-04T16:40:14;2.5;;;0.6;;
53674;SDS011;39574;50.534;8.500;2023-06-04T16:45:14;2.4;;;0.6;;
53674;SDS011;39574;50.534;8.500;2023-06-04T16:50:14;2.8;;;0.7;;
53674;SDS011;39574;50.534;8.500;2023-06-04T16:55:14;3.1;;;0.7;;
53674;SDS011;39574;50.534;8.500;2023-06-04T17:00:14;2.9;;;0.7;;
53674;SDS011;39574;50.534;8.500;2023-06-04T17:05:13;3.0;;;0.7;;
53674;SDS011;39574;50.534;8.500;2023-06-04T17:10:13;2.7;;;0.6;;
53674;SDS011;39574;50.534;8.500;2023-06-04T17:15:13;2.5;;;0.6;;
53674;SDS011;39574;50.534;8.500;2023-06-04T17:20:13;2.4;;;0.6;;
53674;SDS011;39574;50.534;8.500;2023-06-04T17:25:12;2.2;;;0.5;;
53674;SDS011;39574;50.534;8.500;2023-06-04T17:30:12;2.2;;;0.4;;
53674;SDS011;39574;50.534;8.500;2023-06-04T17:35:12;2.2;;;0.4;;
53674;SDS011;39574;50.534;8.500;2023-06-04T17:40:12;2.2;;;0.4;;
53674;SDS011;39574;50.534;8.500;2023-06-04T17:45:13;3.0;;;0.4;;
53674;SDS011;39574;50.534;8.500;2023-06-04T17:50:11;2.7;;;0.4;;
53674;SDS011;39574;50.534;8.500;2023-06-04T17:55:11;2.5;;;0.4;;
53674;SDS011;39574;50.534;8.500;2023-06-04T18:00:11;2.5;;;0.4;;
53674;SDS011;39574;50.534;8.500;2023-06-04T18:05:10;2.3;;;0.4;;
53674;SDS011;39574;50.534;8.500;2023-06-04T18:10:10;2.3;;;0.4;;
53674;SDS011;39574;50.534;8.500;2023-06-04T18:15:10;2.3;;;0.5;;
53674;SDS011;39574;50.534;8.500;2023-06-04T18:20:10;2.3;;;0.5;;
53674;SDS011;39574;50.534;8.500;2023-06-04T18:25:09;2.4;;;0.5;;
53674;SDS011;39574;50.534;8.500;2023-06-04T18:30:09;2.3;;;0.5;;
53674;SDS011;39574;50.534;8.500;2023-06-04T18:35:08;2.5;;;0.6;;
53674;SDS011;39574;50.534;8.500;2023-06-04T18:40:08;2.4;;;0.5;;
53674;SDS011;39574;50.534;8.500;2023-06-04T18:45:08;2.5;;;0.5;;
53674;SDS011;39574;50.534;8.500;2023-06-04T18:50:07;2.6;;;0.5;;
53674;SDS011;39574;50.534;8.500;2023-06-04T18:55:07;2.4;;;0.4;;
53674;SDS011;39574;50.534;8.500;2023-06-04T19:00:07;2.5;;;0.4;;
53674;SDS011;39574;50.534;8.500;2023-06-04T19:05:07;2.6;;;0.6;;
53674;SDS011;39574;50.534;8.500;2023-06-04T19:10:06;2.4;;;0.5;;
53674;SDS011;39574;50.534;8.500;2023-06-04T19:15:05;2.4;;;0.5;;
53674;SDS011;39574;50.534;8.500;2023-06-04T19:20:05;2.4;;;0.5;;
53674;SDS011;39574;50.534;8.500;2023-06-04T19:25:04;2.2;;;0.4;;
53674;SDS011;39574;50.534;8.500;2023-06-04T19:30:05;2.2;;;0.4;;
53674;SDS011;39574;50.534;8.500;2023-06-04T19:35:04;2.4;;;0.4;;
53674;SDS011;39574;50.534;8.500;2023-06-04T19:40:03;2.3;;;0.3;;
53674;SDS011;39574;50.534;8.500;2023-06-04T19:45:03;2.5;;;0.5;;
53674;SDS011;39574;50.534;8.500;2023-06-04T19:50:02;3.1;;;0.5;;
53674;SDS011;39574;50.534;8.500;2023-06-04T19:55:02;2.9;;;0.5;;
53674;SDS011;39574;50.534;8.500;2023-06-04T20:00:04;2.7;;;0.5;;
53674;SDS011;39574;50.534;8.500;2023-06-04T20:05:01;2.5;;;0.5;;
53674;SDS011;39574;50.534;8.500;2023-06-04T20:10:00;2.5;;;0.6;;
53674;SDS011;39574;50.534;8.500;2023-06-04T20:14:59;2.5;;;0.7;;
53674;SDS011;39574;50.534;8.500;2023-06-04T20:19:59;2.6;;;0.7;;
53674;SDS011;39574;50.534;8.500;2023-06-04T20:25:00;2.5;;;0.6;;
53674;SDS011;39574;50.534;8.500;2023-06-04T20:29:58;2.4;;;0.6;;
53674;SDS011;39574;50.534;8.500;2023-06-04T20:34:57;2.4;;;0.6;;
53674;SDS011;39574;50.534;8.500;2023-06-04T20:39:57;2.4;;;0.6;;
53674;SDS011;39574;50.534;8.500;2023-06-04T20:44:56;2.5;;;0.6;;
53674;SDS011;39574;50.534;8.500;2023-06-04T20:49:56;2.4;;;0.5;;
53674;SDS011;39574;50.534;8.500;2023-06-04T20:54:55;3.2;;;0.8;;
53674;SDS011;39574;50.534;8.500;2023-06-04T20:59:55;2.9;;;0.7;;
53674;SDS011;39574;50.534;8.500;2023-06-04T21:04:54;2.7;;;0.6;;
53674;SDS011;39574;50.534;8.500;2023-06-04T21:09:53;2.9;;;0.6;;
53674;SDS011;39574;50.534;8.500;2023-06-04T21:14:53;2.7;;;0.6;;
53674;SDS011;39574;50.534;8.500;2023-06-04T21:19:52;2.6;;;0.7;;
53674;SDS011;39574;50.534;8.500;2023-06-04T21:24:52;2.4;;;0.6;;
53674;SDS011;39574;50.534;8.500;2023-06-04T21:29:51;2.4;;;0.7;;
53674;SDS011;39574;50.534;8.500;2023-06-04T21:34:50;2.5;;;0.7;;
53674;SDS011;39574;50.534;8.500;2023-06-04T21:39:50;2.4;;;0.6;;
53674;SDS011;39574;50.534;8.500;2023-06-04T21:44:49;2.4;;;0.6;;
53674;SDS011;39574;50.534;8.500;2023-06-04T21:49:48;2.4;;;0.6;;
53674;SDS011;39574;50.534;8.500;2023-06-04T21:54:48;2.4;;;0.6;;
53674;SDS011;39574;50.534;8.500;2023-06-04T21:59:47;2.3;;;0.5;;
53674;SDS011;39574;50.534;8.500;2023-06-04T22:04:46;2.3;;;0.5;;
53674;SDS011;39574;50.534;8.500;2023-06-04T22:09:45;2.3;;;0.5;;
53674;SDS011;39574;50.534;8.500;2023-06-04T22:14:45;2.3;;;0.5;;
53674;SDS011;39574;50.534;8.500;2023-06-04T22:19:44;2.3;;;0.6;;
53674;SDS011;39574;50.534;8.500;2023-06-04T22:24:43;2.3;;;0.6;;
53674;SDS011;39574;50.534;8.500;2023-06-04T22:29:43;2.6;;;0.9;;
53674;SDS011;39574;50.534;8.500;2023-06-04T22:34:42;2.9;;;0.8;;
53674;SDS011;39574;50.534;8.500;2023-06-04T22:39:41;2.7;;;0.7;;
53674;SDS011;39574;50.534;8.500;2023-06-04T22:44:40;2.7;;;0.7;;
53674;SDS011;39574;50.534;8.500;2023-06-04T22:49:40;3.3;;;0.8;;
53674;SDS011;39574;50.534;8.500;2023-06-04T22:54:39;2.9;;;0.7;;
53674;SDS011;39574;50.534;8.500;2023-06-04T22:59:38;2.7;;;0.6;;
53674;SDS011;39574;50.534;8.500;2023-06-04T23:04:37;2.7;;;0.8;;
53674;SDS011;39574;50.534;8.500;2023-06-04T23:09:37;2.5;;;0.7;;
53674;SDS011;39574;50.534;8.500;2023-06-04T23:14:36;2.5;;;0.8;;
53674;SDS011;39574;50.534;8.500;2023-06-04T23:19:35;2.4;;;0.8;;
53674;SDS011;39574;50.534;8.500;2023-06-04T23:24:34;2.9;;;1.0;;
53674;SDS011;39574;50.534;8.500;2023-06-04T23:29:33;3.6;;;1.0;;
53674;SDS011;39574;50.534;8.500;2023-06-04T23:34:33;3.2;;;0.8;;
53674;SDS011;39574;50.534;8.500;2023-06-04T23:39:32;2.9;;;0.7;;
53674;SDS011;39574;50.534;8.500;2023-06-04T23:44:31;2.5;;;0.6;;
53674;SDS011;39574;50.534;8.500;2023-06-04T23:49:30;3.3;;;0.7;;
53674;SDS011;39574;50.534;8.500;2023-06-04T23:54:29;3.1;;;0.7;;
53674;SDS011;39574;50.534;8.500;2023-06-04T23:59:29;2.8;;;0.6;;
